sensor_id;sensor_type;location;lat;lon;timestamp;temperature;humidity
33382;DHT22;21342;48.786;9.166;2022-10-16T00:01:06;16.40;99.90
33382;DHT22;21342;48.786;9.166;2022-10-16T00:03:34;16.40;99.90
33382;DHT22;21342;48.786;9.166;2022-10-16T00:06:03;16.40;99.90
33382;DHT22;21342;48.786;9.166;2022-10-16T00:08:30;16.40;99.90
33382;DHT22;21342;48.786;9.166;2022-10-16T00:11:02;16.40;99.90
33382;DHT22;21342;48.786;9.166;2022-10-16T00:13:29;16.40;99.90
33382;DHT22;21342;48.786;9.166;2022-10-16T00:18:25;16.40;99.90
33382;DHT22;21342;48.786;9.166;2022-10-16T00:20:52;16.30;99.90
33382;DHT22;21342;48.786;9.166;2022-10-16T00:23:21;16.40;99.90
33382;DHT22;21342;48.786;9.166;2022-10-16T00:25:55;16.40;99.90
33382;DHT22;21342;48.786;9.166;2022-10-16T00:28:23;16.30;99.90
33382;DHT22;21342;48.786;9.166;2022-10-16T00:30:50;16.20;99.90
33382;DHT22;21342;48.786;9.166;2022-10-16T00:33:17;16.20;99.90
33382;DHT22;21342;48.786;9.166;2022-10-16T00:35:44;16.10;99.90
33382;DHT22;21342;48.786;9.166;2022-10-16T00:38:12;16.10;99.90
33382;DHT22;21342;48.786;9.166;2022-10-16T00:40:40;16.10;99.90
33382;DHT22;21342;48.786;9.166;2022-10-16T00:43:12;16.10;99.90
33382;DHT22;21342;48.786;9.166;2022-10-16T00:45:41;16.10;99.90
33382;DHT22;21342;48.786;9.166;2022-10-16T00:48:12;16.10;99.90
33382;DHT22;21342;48.786;9.166;2022-10-16T00:50:40;16.10;99.90
33382;DHT22;21342;48.786;9.166;2022-10-16T00:53:10;16.10;99.90
33382;DHT22;21342;48.786;9.166;2022-10-16T00:55:40;16.10;99.90
33382;DHT22;21342;48.786;9.166;2022-10-16T00:58:07;16.10;99.90
33382;DHT22;21342;48.786;9.166;2022-10-16T01:00:34;16.00;99.90
33382;DHT22;21342;48.786;9.166;2022-10-16T01:03:02;16.00;99.90
33382;DHT22;21342;48.786;9.166;2022-10-16T01:05:36;16.00;99.90
33382;DHT22;21342;48.786;9.166;2022-10-16T01:08:12;16.10;99.90
33382;DHT22;21342;48.786;9.166;2022-10-16T01:10:46;16.10;99.90
33382;DHT22;21342;48.786;9.166;2022-10-16T01:13:21;16.10;99.90
33382;DHT22;21342;48.786;9.166;2022-10-16T01:15:52;16.10;99.90
33382;DHT22;21342;48.786;9.166;2022-10-16T01:18:27;16.10;99.90
33382;DHT22;21342;48.786;9.166;2022-10-16T01:21:01;16.10;99.90
33382;DHT22;21342;48.786;9.166;2022-10-16T01:23:38;16.10;99.90
33382;DHT22;21342;48.786;9.166;2022-10-16T01:26:18;16.10;99.90
33382;DHT22;21342;48.786;9.166;2022-10-16T01:28:52;16.00;99.90
33382;DHT22;21342;48.786;9.166;2022-10-16T01:31:24;16.10;99.90
33382;DHT22;21342;48.786;9.166;2022-10-16T01:33:57;16.10;99.90
33382;DHT22;21342;48.786;9.166;2022-10-16T01:36:29;16.10;99.90
33382;DHT22;21342;48.786;9.166;2022-10-16T01:39:01;16.10;99.90
33382;DHT22;21342;48.786;9.166;2022-10-16T01:41:33;16.10;99.90
33382;DHT22;21342;48.786;9.166;2022-10-16T01:44:05;16.10;99.90
33382;DHT22;21342;48.786;9.166;2022-10-16T01:46:35;16.00;99.90
33382;DHT22;21342;48.786;9.166;2022-10-16T01:49:03;16.10;99.90
33382;DHT22;21342;48.786;9.166;2022-10-16T01:51:34;16.10;99.90
33382;DHT22;21342;48.786;9.166;2022-10-16T01:54:02;16.10;99.90
33382;DHT22;21342;48.786;9.166;2022-10-16T01:56:31;16.10;99.90
33382;DHT22;21342;48.786;9.166;2022-10-16T01:59:01;16.10;99.90
33382;DHT22;21342;48.786;9.166;2022-10-16T02:01:32;16.10;99.90
33382;DHT22;21342;48.786;9.166;2022-10-16T02:04:07;16.10;99.90
33382;DHT22;21342;48.786;9.166;2022-10-16T02:06:35;16.10;99.90
33382;DHT22;21342;48.786;9.166;2022-10-16T02:09:02;16.10;99.90
33382;DHT22;21342;48.786;9.166;2022-10-16T02:11:29;16.10;99.90
33382;DHT22;21342;48.786;9.166;2022-10-16T02:14:01;16.10;99.90
33382;DHT22;21342;48.786;9.166;2022-10-16T02:16:37;16.10;99.90
33382;DHT22;21342;48.786;9.166;2022-10-16T02:19:05;16.10;99.90
33382;DHT22;21342;48.786;9.166;2022-10-16T02:21:37;16.20;99.90
33382;DHT22;21342;48.786;9.166;2022-10-16T02:24:11;16.10;99.90
33382;DHT22;21342;48.786;9.166;2022-10-16T02:26:52;16.10;99.90
33382;DHT22;21342;48.786;9.166;2022-10-16T02:29:23;16.20;99.90
33382;DHT22;21342;48.786;9.166;2022-10-16T02:31:56;16.20;99.90
33382;DHT22;21342;48.786;9.166;2022-10-16T02:34:26;16.20;99.90
33382;DHT22;21342;48.786;9.166;2022-10-16T02:36:54;16.20;99.90
33382;DHT22;21342;48.786;9.166;2022-10-16T02:39:21;16.20;99.90
33382;DHT22;21342;48.786;9.166;2022-10-16T02:41:49;16.20;99.90
33382;DHT22;21342;48.786;9.166;2022-10-16T02:44:16;16.10;99.90
33382;DHT22;21342;48.786;9.166;2022-10-16T02:46:43;16.10;99.90
33382;DHT22;21342;48.786;9.166;2022-10-16T02:49:11;16.20;99.90
33382;DHT22;21342;48.786;9.166;2022-10-16T02:51:39;16.20;99.90
33382;DHT22;21342;48.786;9.166;2022-10-16T02:54:06;16.10;99.90
33382;DHT22;21342;48.786;9.166;2022-10-16T02:56:33;16.10;99.90
33382;DHT22;21342;48.786;9.166;2022-10-16T02:59:00;16.20;99.90
33382;DHT22;21342;48.786;9.166;2022-10-16T03:01:27;16.10;99.90
33382;DHT22;21342;48.786;9.166;2022-10-16T03:03:54;16.10;99.90
33382;DHT22;21342;48.786;9.166;2022-10-16T03:06:23;16.10;99.90
33382;DHT22;21342;48.786;9.166;2022-10-16T03:08:50;16.10;99.90
33382;DHT22;21342;48.786;9.166;2022-10-16T03:11:17;16.10;99.90
33382;DHT22;21342;48.786;9.166;2022-10-16T03:13:44;16.20;99.90
33382;DHT22;21342;48.786;9.166;2022-10-16T03:16:11;16.20;99.90
33382;DHT22;21342;48.786;9.166;2022-10-16T03:18:38;16.20;99.90
33382;DHT22;21342;48.786;9.166;2022-10-16T03:21:06;16.20;99.90
33382;DHT22;21342;48.786;9.166;2022-10-16T03:23:34;16.10;99.90
33382;DHT22;21342;48.786;9.166;2022-10-16T03:26:01;16.10;99.90
33382;DHT22;21342;48.786;9.166;2022-10-16T03:28:28;16.00;99.90
33382;DHT22;21342;48.786;9.166;2022-10-16T03:30:56;16.00;99.90
33382;DHT22;21342;48.786;9.166;2022-10-16T03:33:23;16.10;99.90
33382;DHT22;21342;48.786;9.166;2022-10-16T03:35:53;16.10;99.90
33382;DHT22;21342;48.786;9.166;2022-10-16T03:38:21;16.10;99.90
33382;DHT22;21342;48.786;9.166;2022-10-16T03:40:49;16.00;99.90
33382;DHT22;21342;48.786;9.166;2022-10-16T03:43:16;16.10;99.90
33382;DHT22;21342;48.786;9.166;2022-10-16T03:45:43;16.10;99.90
33382;DHT22;21342;48.786;9.166;2022-10-16T03:48:11;16.10;99.90
33382;DHT22;21342;48.786;9.166;2022-10-16T03:53:05;16.00;99.90
33382;DHT22;21342;48.786;9.166;2022-10-16T03:55:32;16.00;99.90
33382;DHT22;21342;48.786;9.166;2022-10-16T03:58:01;15.90;99.90
33382;DHT22;21342;48.786;9.166;2022-10-16T04:00:28;15.90;99.90
33382;DHT22;21342;48.786;9.166;2022-10-16T04:02:55;15.90;99.90
33382;DHT22;21342;48.786;9.166;2022-10-16T04:05:22;15.90;99.90
33382;DHT22;21342;48.786;9.166;2022-10-16T04:07:49;15.90;99.90
33382;DHT22;21342;48.786;9.166;2022-10-16T04:10:17;15.80;99.90
33382;DHT22;21342;48.786;9.166;2022-10-16T04:12:44;15.90;99.90
33382;DHT22;21342;48.786;9.166;2022-10-16T04:15:13;15.80;99.90
33382;DHT22;21342;48.786;9.166;2022-10-16T04:17:40;15.90;99.90
33382;DHT22;21342;48.786;9.166;2022-10-16T04:20:08;15.90;99.90
33382;DHT22;21342;48.786;9.166;2022-10-16T04:22:35;15.90;99.90
33382;DHT22;21342;48.786;9.166;2022-10-16T04:25:02;15.90;99.90
33382;DHT22;21342;48.786;9.166;2022-10-16T04:27:29;15.90;99.90
33382;DHT22;21342;48.786;9.166;2022-10-16T04:29:57;15.90;99.90
33382;DHT22;21342;48.786;9.166;2022-10-16T04:32:25;15.90;99.90
33382;DHT22;21342;48.786;9.166;2022-10-16T04:34:53;15.90;99.90
33382;DHT22;21342;48.786;9.166;2022-10-16T04:37:23;15.80;99.90
33382;DHT22;21342;48.786;9.166;2022-10-16T04:39:51;15.90;99.90
33382;DHT22;21342;48.786;9.166;2022-10-16T04:42:19;15.90;99.90
33382;DHT22;21342;48.786;9.166;2022-10-16T04:44:46;15.90;99.90
33382;DHT22;21342;48.786;9.166;2022-10-16T04:47:14;15.90;99.90
33382;DHT22;21342;48.786;9.166;2022-10-16T04:49:42;15.90;99.90
33382;DHT22;21342;48.786;9.166;2022-10-16T04:52:09;15.90;99.90
33382;DHT22;21342;48.786;9.166;2022-10-16T04:54:36;15.90;99.90
33382;DHT22;21342;48.786;9.166;2022-10-16T04:57:03;15.90;99.90
33382;DHT22;21342;48.786;9.166;2022-10-16T04:59:31;15.90;99.90
33382;DHT22;21342;48.786;9.166;2022-10-16T05:01:58;15.90;99.90
33382;DHT22;21342;48.786;9.166;2022-10-16T05:04:25;15.90;99.90
33382;DHT22;21342;48.786;9.166;2022-10-16T05:06:53;15.90;99.90
33382;DHT22;21342;48.786;9.166;2022-10-16T05:09:21;16.00;99.90
33382;DHT22;21342;48.786;9.166;2022-10-16T05:11:48;16.10;99.90
33382;DHT22;21342;48.786;9.166;2022-10-16T05:14:15;16.10;99.90
33382;DHT22;21342;48.786;9.166;2022-10-16T05:16:42;16.00;99.90
33382;DHT22;21342;48.786;9.166;2022-10-16T05:19:09;16.00;99.90
33382;DHT22;21342;48.786;9.166;2022-10-16T05:21:36;16.00;99.90
33382;DHT22;21342;48.786;9.166;2022-10-16T05:24:05;15.90;99.90
33382;DHT22;21342;48.786;9.166;2022-10-16T05:26:32;15.90;99.90
33382;DHT22;21342;48.786;9.166;2022-10-16T05:28:59;16.00;99.90
33382;DHT22;21342;48.786;9.166;2022-10-16T05:31:26;16.00;99.90
33382;DHT22;21342;48.786;9.166;2022-10-16T05:33:58;16.00;99.90
33382;DHT22;21342;48.786;9.166;2022-10-16T05:36:26;16.00;99.90
33382;DHT22;21342;48.786;9.166;2022-10-16T05:38:53;16.00;99.90
33382;DHT22;21342;48.786;9.166;2022-10-16T05:41:21;16.00;99.90
33382;DHT22;21342;48.786;9.166;2022-10-16T05:43:51;16.10;99.90
33382;DHT22;21342;48.786;9.166;2022-10-16T05:46:19;16.10;99.90
33382;DHT22;21342;48.786;9.166;2022-10-16T05:48:46;16.10;99.90
33382;DHT22;21342;48.786;9.166;2022-10-16T05:51:14;16.10;99.90
33382;DHT22;21342;48.786;9.166;2022-10-16T05:53:41;16.10;99.90
33382;DHT22;21342;48.786;9.166;2022-10-16T05:56:10;16.10;99.90
33382;DHT22;21342;48.786;9.166;2022-10-16T05:58:39;16.10;99.90
33382;DHT22;21342;48.786;9.166;2022-10-16T06:01:09;16.20;99.90
33382;DHT22;21342;48.786;9.166;2022-10-16T06:03:37;16.20;99.90
33382;DHT22;21342;48.786;9.166;2022-10-16T06:06:08;16.30;99.90
33382;DHT22;21342;48.786;9.166;2022-10-16T06:08:35;16.30;99.90
33382;DHT22;21342;48.786;9.166;2022-10-16T06:11:04;16.40;99.90
33382;DHT22;21342;48.786;9.166;2022-10-16T06:13:31;16.30;99.90
33382;DHT22;21342;48.786;9.166;2022-10-16T06:16:01;16.30;99.90
33382;DHT22;21342;48.786;9.166;2022-10-16T06:18:29;16.20;99.90
33382;DHT22;21342;48.786;9.166;2022-10-16T06:20:57;16.20;99.90
33382;DHT22;21342;48.786;9.166;2022-10-16T06:23:24;16.30;99.90
33382;DHT22;21342;48.786;9.166;2022-10-16T06:28:19;16.40;99.90
33382;DHT22;21342;48.786;9.166;2022-10-16T06:30:46;16.50;99.90
33382;DHT22;21342;48.786;9.166;2022-10-16T06:33:14;16.50;99.90
33382;DHT22;21342;48.786;9.166;2022-10-16T06:35:41;16.50;99.90
33382;DHT22;21342;48.786;9.166;2022-10-16T06:38:09;16.50;99.90
33382;DHT22;21342;48.786;9.166;2022-10-16T06:40:36;16.50;99.90
33382;DHT22;21342;48.786;9.166;2022-10-16T06:43:03;16.50;99.90
33382;DHT22;21342;48.786;9.166;2022-10-16T06:45:30;16.60;99.90
33382;DHT22;21342;48.786;9.166;2022-10-16T06:47:57;16.60;99.90
33382;DHT22;21342;48.786;9.166;2022-10-16T06:50:26;16.60;99.90
33382;DHT22;21342;48.786;9.166;2022-10-16T06:52:53;16.60;99.90
33382;DHT22;21342;48.786;9.166;2022-10-16T06:55:20;16.60;99.90
33382;DHT22;21342;48.786;9.166;2022-10-16T06:57:48;16.70;99.90
33382;DHT22;21342;48.786;9.166;2022-10-16T07:00:15;16.70;99.90
33382;DHT22;21342;48.786;9.166;2022-10-16T07:02:42;16.70;99.90
33382;DHT22;21342;48.786;9.166;2022-10-16T07:05:09;16.70;99.90
33382;DHT22;21342;48.786;9.166;2022-10-16T07:07:38;16.80;99.90
33382;DHT22;21342;48.786;9.166;2022-10-16T07:10:05;16.80;99.90
33382;DHT22;21342;48.786;9.166;2022-10-16T07:12:33;16.90;99.90
33382;DHT22;21342;48.786;9.166;2022-10-16T07:15:00;16.90;99.90
33382;DHT22;21342;48.786;9.166;2022-10-16T07:17:27;17.00;99.90
33382;DHT22;21342;48.786;9.166;2022-10-16T07:19:54;17.00;99.90
33382;DHT22;21342;48.786;9.166;2022-10-16T07:22:21;17.10;99.90
33382;DHT22;21342;48.786;9.166;2022-10-16T07:24:49;17.10;99.90
33382;DHT22;21342;48.786;9.166;2022-10-16T07:27:31;17.20;99.90
33382;DHT22;21342;48.786;9.166;2022-10-16T07:30:08;17.10;99.90
33382;DHT22;21342;48.786;9.166;2022-10-16T07:32:35;17.10;99.90
33382;DHT22;21342;48.786;9.166;2022-10-16T07:35:03;17.10;99.90
33382;DHT22;21342;48.786;9.166;2022-10-16T07:37:30;17.10;99.90
33382;DHT22;21342;48.786;9.166;2022-10-16T07:39:58;17.10;99.90
33382;DHT22;21342;48.786;9.166;2022-10-16T07:42:27;17.10;99.90
33382;DHT22;21342;48.786;9.166;2022-10-16T07:44:54;17.20;99.90
33382;DHT22;21342;48.786;9.166;2022-10-16T07:47:21;17.20;99.90
33382;DHT22;21342;48.786;9.166;2022-10-16T07:49:48;17.10;99.90
33382;DHT22;21342;48.786;9.166;2022-10-16T07:52:15;17.20;99.90
33382;DHT22;21342;48.786;9.166;2022-10-16T07:54:43;17.20;99.90
33382;DHT22;21342;48.786;9.166;2022-10-16T07:57:11;17.30;99.90
33382;DHT22;21342;48.786;9.166;2022-10-16T08:02:12;17.50;99.90
33382;DHT22;21342;48.786;9.166;2022-10-16T08:04:40;17.40;99.90
33382;DHT22;21342;48.786;9.166;2022-10-16T08:07:07;17.50;99.90
33382;DHT22;21342;48.786;9.166;2022-10-16T08:09:35;17.50;99.90
33382;DHT22;21342;48.786;9.166;2022-10-16T08:12:02;17.50;99.90
33382;DHT22;21342;48.786;9.166;2022-10-16T08:14:31;17.60;99.90
33382;DHT22;21342;48.786;9.166;2022-10-16T08:16:58;17.70;99.90
33382;DHT22;21342;48.786;9.166;2022-10-16T08:19:27;17.80;99.90
33382;DHT22;21342;48.786;9.166;2022-10-16T08:21:55;17.90;99.90
33382;DHT22;21342;48.786;9.166;2022-10-16T08:24:22;18.10;99.90
33382;DHT22;21342;48.786;9.166;2022-10-16T08:26:49;18.30;99.90
33382;DHT22;21342;48.786;9.166;2022-10-16T08:29:17;18.60;99.90
33382;DHT22;21342;48.786;9.166;2022-10-16T08:31:45;18.70;99.90
33382;DHT22;21342;48.786;9.166;2022-10-16T08:34:12;18.80;99.90
33382;DHT22;21342;48.786;9.166;2022-10-16T08:36:39;18.70;99.90
33382;DHT22;21342;48.786;9.166;2022-10-16T08:39:07;18.70;99.90
33382;DHT22;21342;48.786;9.166;2022-10-16T08:41:51;18.80;99.90
33382;DHT22;21342;48.786;9.166;2022-10-16T08:44:35;18.80;99.90
33382;DHT22;21342;48.786;9.166;2022-10-16T08:47:13;18.90;99.90
33382;DHT22;21342;48.786;9.166;2022-10-16T08:49:55;18.70;99.90
33382;DHT22;21342;48.786;9.166;2022-10-16T08:52:24;18.70;99.90
33382;DHT22;21342;48.786;9.166;2022-10-16T08:54:54;18.60;99.90
33382;DHT22;21342;48.786;9.166;2022-10-16T08:57:24;18.60;99.90
33382;DHT22;21342;48.786;9.166;2022-10-16T08:59:52;18.60;99.90
33382;DHT22;21342;48.786;9.166;2022-10-16T09:02:30;18.60;99.90
33382;DHT22;21342;48.786;9.166;2022-10-16T09:05:10;18.60;99.90
33382;DHT22;21342;48.786;9.166;2022-10-16T09:07:47;18.70;99.90
33382;DHT22;21342;48.786;9.166;2022-10-16T09:10:30;18.80;99.90
33382;DHT22;21342;48.786;9.166;2022-10-16T09:13:06;18.90;99.90
33382;DHT22;21342;48.786;9.166;2022-10-16T09:15:39;19.00;99.90
33382;DHT22;21342;48.786;9.166;2022-10-16T09:18:12;19.10;99.90
33382;DHT22;21342;48.786;9.166;2022-10-16T09:20:49;19.20;99.90
33382;DHT22;21342;48.786;9.166;2022-10-16T09:23:18;19.40;99.90
33382;DHT22;21342;48.786;9.166;2022-10-16T09:25:47;19.60;99.90
33382;DHT22;21342;48.786;9.166;2022-10-16T09:28:16;19.70;99.90
33382;DHT22;21342;48.786;9.166;2022-10-16T09:30:44;19.80;99.90
33382;DHT22;21342;48.786;9.166;2022-10-16T09:33:13;19.90;99.90
33382;DHT22;21342;48.786;9.166;2022-10-16T09:35:43;19.80;99.90
33382;DHT22;21342;48.786;9.166;2022-10-16T09:38:22;19.80;99.90
33382;DHT22;21342;48.786;9.166;2022-10-16T09:40:49;19.80;99.90
33382;DHT22;21342;48.786;9.166;2022-10-16T09:43:23;19.60;99.90
33382;DHT22;21342;48.786;9.166;2022-10-16T09:45:57;19.70;99.90
33382;DHT22;21342;48.786;9.166;2022-10-16T09:48:28;19.60;99.90
33382;DHT22;21342;48.786;9.166;2022-10-16T09:50:59;19.60;99.90
33382;DHT22;21342;48.786;9.166;2022-10-16T09:53:39;19.60;99.90
33382;DHT22;21342;48.786;9.166;2022-10-16T09:56:06;19.80;99.90
33382;DHT22;21342;48.786;9.166;2022-10-16T09:58:34;20.10;99.90
33382;DHT22;21342;48.786;9.166;2022-10-16T10:01:03;20.30;99.90
33382;DHT22;21342;48.786;9.166;2022-10-16T10:03:39;20.40;99.90
33382;DHT22;21342;48.786;9.166;2022-10-16T10:06:17;20.50;99.90
33382;DHT22;21342;48.786;9.166;2022-10-16T10:08:59;20.70;99.90
33382;DHT22;21342;48.786;9.166;2022-10-16T10:11:40;20.70;99.90
33382;DHT22;21342;48.786;9.166;2022-10-16T10:14:15;20.90;99.90
33382;DHT22;21342;48.786;9.166;2022-10-16T10:16:43;21.00;99.90
33382;DHT22;21342;48.786;9.166;2022-10-16T10:19:15;21.20;99.90
33382;DHT22;21342;48.786;9.166;2022-10-16T10:21:43;21.40;99.90
33382;DHT22;21342;48.786;9.166;2022-10-16T10:24:11;21.50;99.90
33382;DHT22;21342;48.786;9.166;2022-10-16T10:26:47;21.60;99.90
33382;DHT22;21342;48.786;9.166;2022-10-16T10:29:22;21.80;99.90
33382;DHT22;21342;48.786;9.166;2022-10-16T10:32:02;21.80;99.90
33382;DHT22;21342;48.786;9.166;2022-10-16T10:35:01;22.00;99.90
33382;DHT22;21342;48.786;9.166;2022-10-16T10:37:41;22.50;99.90
33382;DHT22;21342;48.786;9.166;2022-10-16T10:40:28;22.90;99.90
33382;DHT22;21342;48.786;9.166;2022-10-16T10:43:03;23.10;99.90
33382;DHT22;21342;48.786;9.166;2022-10-16T10:45:39;23.00;99.90
33382;DHT22;21342;48.786;9.166;2022-10-16T10:48:24;23.30;99.90
33382;DHT22;21342;48.786;9.166;2022-10-16T10:50:59;23.50;99.90
33382;DHT22;21342;48.786;9.166;2022-10-16T10:53:37;24.00;99.90
33382;DHT22;21342;48.786;9.166;2022-10-16T10:56:20;25.00;99.90
33382;DHT22;21342;48.786;9.166;2022-10-16T10:59:00;25.20;99.90
33382;DHT22;21342;48.786;9.166;2022-10-16T11:01:38;25.30;99.90
33382;DHT22;21342;48.786;9.166;2022-10-16T11:07:17;25.30;99.90
33382;DHT22;21342;48.786;9.166;2022-10-16T11:09:47;25.10;99.90
33382;DHT22;21342;48.786;9.166;2022-10-16T11:12:19;25.00;99.90
33382;DHT22;21342;48.786;9.166;2022-10-16T11:14:50;24.40;99.90
33382;DHT22;21342;48.786;9.166;2022-10-16T11:17:25;24.40;99.90
33382;DHT22;21342;48.786;9.166;2022-10-16T11:19:56;24.70;99.90
33382;DHT22;21342;48.786;9.166;2022-10-16T11:22:32;24.60;99.90
33382;DHT22;21342;48.786;9.166;2022-10-16T11:25:04;24.50;99.90
33382;DHT22;21342;48.786;9.166;2022-10-16T11:27:38;25.00;99.90
33382;DHT22;21342;48.786;9.166;2022-10-16T11:30:14;26.00;99.90
33382;DHT22;21342;48.786;9.166;2022-10-16T11:32:53;26.20;99.90
33382;DHT22;21342;48.786;9.166;2022-10-16T11:35:29;26.40;99.90
33382;DHT22;21342;48.786;9.166;2022-10-16T11:38:02;26.10;99.90
33382;DHT22;21342;48.786;9.166;2022-10-16T11:40:38;25.90;99.90
33382;DHT22;21342;48.786;9.166;2022-10-16T11:43:12;25.70;99.90
33382;DHT22;21342;48.786;9.166;2022-10-16T11:45:42;26.00;99.90
33382;DHT22;21342;48.786;9.166;2022-10-16T11:48:21;26.50;99.90
33382;DHT22;21342;48.786;9.166;2022-10-16T11:50:53;27.30;99.90
33382;DHT22;21342;48.786;9.166;2022-10-16T11:55:54;28.30;99.90
33382;DHT22;21342;48.786;9.166;2022-10-16T11:58:26;28.20;99.90
33382;DHT22;21342;48.786;9.166;2022-10-16T12:01:00;28.30;99.90
33382;DHT22;21342;48.786;9.166;2022-10-16T12:03:35;28.20;99.90
33382;DHT22;21342;48.786;9.166;2022-10-16T12:06:13;28.80;99.90
33382;DHT22;21342;48.786;9.166;2022-10-16T12:08:45;28.20;99.90
33382;DHT22;21342;48.786;9.166;2022-10-16T12:11:23;28.00;99.90
33382;DHT22;21342;48.786;9.166;2022-10-16T12:13:51;27.60;99.90
33382;DHT22;21342;48.786;9.166;2022-10-16T12:16:22;27.10;99.90
33382;DHT22;21342;48.786;9.166;2022-10-16T12:19:07;26.60;99.90
33382;DHT22;21342;48.786;9.166;2022-10-16T12:21:36;26.10;99.90
33382;DHT22;21342;48.786;9.166;2022-10-16T12:24:05;25.80;99.90
33382;DHT22;21342;48.786;9.166;2022-10-16T12:26:34;25.70;99.90
33382;DHT22;21342;48.786;9.166;2022-10-16T12:29:14;25.50;99.90
33382;DHT22;21342;48.786;9.166;2022-10-16T12:31:49;25.90;99.90
33382;DHT22;21342;48.786;9.166;2022-10-16T12:34:22;25.90;99.90
33382;DHT22;21342;48.786;9.166;2022-10-16T12:36:50;25.90;99.90
33382;DHT22;21342;48.786;9.166;2022-10-16T12:39:22;25.50;99.90
33382;DHT22;21342;48.786;9.166;2022-10-16T12:42:01;25.30;99.90
33382;DHT22;21342;48.786;9.166;2022-10-16T12:44:33;25.60;99.90
33382;DHT22;21342;48.786;9.166;2022-10-16T12:47:00;26.00;99.90
33382;DHT22;21342;48.786;9.166;2022-10-16T12:49:35;25.80;99.90
33382;DHT22;21342;48.786;9.166;2022-10-16T12:52:03;25.60;99.90
33382;DHT22;21342;48.786;9.166;2022-10-16T12:54:36;25.50;99.90
33382;DHT22;21342;48.786;9.166;2022-10-16T12:57:24;25.70;99.90
33382;DHT22;21342;48.786;9.166;2022-10-16T12:59:59;25.70;99.90
33382;DHT22;21342;48.786;9.166;2022-10-16T13:02:46;25.40;99.90
33382;DHT22;21342;48.786;9.166;2022-10-16T13:05:30;25.00;99.90
33382;DHT22;21342;48.786;9.166;2022-10-16T13:08:15;24.70;99.90
33382;DHT22;21342;48.786;9.166;2022-10-16T13:10:54;24.40;99.90
33382;DHT22;21342;48.786;9.166;2022-10-16T13:13:47;24.40;99.90
33382;DHT22;21342;48.786;9.166;2022-10-16T13:16:25;24.80;99.90
33382;DHT22;21342;48.786;9.166;2022-10-16T13:19:04;24.70;99.90
33382;DHT22;21342;48.786;9.166;2022-10-16T13:21:42;24.50;99.90
33382;DHT22;21342;48.786;9.166;2022-10-16T13:24:23;24.50;99.90
33382;DHT22;21342;48.786;9.166;2022-10-16T13:26:59;24.50;99.90
33382;DHT22;21342;48.786;9.166;2022-10-16T13:29:30;24.50;99.90
33382;DHT22;21342;48.786;9.166;2022-10-16T13:31:59;24.40;99.90
33382;DHT22;21342;48.786;9.166;2022-10-16T13:34:27;24.30;99.90
33382;DHT22;21342;48.786;9.166;2022-10-16T13:36:54;24.10;99.90
33382;DHT22;21342;48.786;9.166;2022-10-16T13:39:24;23.90;99.90
33382;DHT22;21342;48.786;9.166;2022-10-16T13:42:02;23.90;99.90
33382;DHT22;21342;48.786;9.166;2022-10-16T13:44:36;23.70;99.90
33382;DHT22;21342;48.786;9.166;2022-10-16T13:47:10;23.70;99.90
33382;DHT22;21342;48.786;9.166;2022-10-16T13:49:39;23.70;99.90
33382;DHT22;21342;48.786;9.166;2022-10-16T13:52:17;23.70;99.90
33382;DHT22;21342;48.786;9.166;2022-10-16T13:54:45;23.70;99.90
33382;DHT22;21342;48.786;9.166;2022-10-16T13:57:14;23.60;99.90
33382;DHT22;21342;48.786;9.166;2022-10-16T13:59:42;23.60;99.90
33382;DHT22;21342;48.786;9.166;2022-10-16T14:02:25;23.70;99.90
33382;DHT22;21342;48.786;9.166;2022-10-16T14:04:54;23.60;99.90
33382;DHT22;21342;48.786;9.166;2022-10-16T14:07:23;23.60;99.90
33382;DHT22;21342;48.786;9.166;2022-10-16T14:09:52;23.60;99.90
33382;DHT22;21342;48.786;9.166;2022-10-16T14:12:22;23.40;99.90
33382;DHT22;21342;48.786;9.166;2022-10-16T14:14:51;23.20;99.90
33382;DHT22;21342;48.786;9.166;2022-10-16T14:17:22;23.10;99.90
33382;DHT22;21342;48.786;9.166;2022-10-16T14:19:51;23.10;99.90
33382;DHT22;21342;48.786;9.166;2022-10-16T14:22:28;22.90;99.90
33382;DHT22;21342;48.786;9.166;2022-10-16T14:24:56;22.80;99.90
33382;DHT22;21342;48.786;9.166;2022-10-16T14:27:31;22.80;99.90
33382;DHT22;21342;48.786;9.166;2022-10-16T14:30:16;22.80;99.90
33382;DHT22;21342;48.786;9.166;2022-10-16T14:32:54;22.90;99.90
33382;DHT22;21342;48.786;9.166;2022-10-16T14:35:27;23.00;99.90
33382;DHT22;21342;48.786;9.166;2022-10-16T14:37:55;23.10;99.90
33382;DHT22;21342;48.786;9.166;2022-10-16T14:40:25;23.20;99.90
33382;DHT22;21342;48.786;9.166;2022-10-16T14:42:54;23.20;99.90
33382;DHT22;21342;48.786;9.166;2022-10-16T14:45:23;23.10;99.90
33382;DHT22;21342;48.786;9.166;2022-10-16T14:47:52;23.00;99.90
33382;DHT22;21342;48.786;9.166;2022-10-16T14:50:20;22.90;99.90
33382;DHT22;21342;48.786;9.166;2022-10-16T14:52:48;22.80;99.90
33382;DHT22;21342;48.786;9.166;2022-10-16T14:55:15;22.80;99.90
33382;DHT22;21342;48.786;9.166;2022-10-16T14:57:43;22.70;99.90
33382;DHT22;21342;48.786;9.166;2022-10-16T15:00:18;22.80;99.90
33382;DHT22;21342;48.786;9.166;2022-10-16T15:02:46;22.80;99.90
33382;DHT22;21342;48.786;9.166;2022-10-16T15:05:17;22.90;99.90
33382;DHT22;21342;48.786;9.166;2022-10-16T15:07:45;22.90;99.90
33382;DHT22;21342;48.786;9.166;2022-10-16T15:10:12;22.90;99.90
33382;DHT22;21342;48.786;9.166;2022-10-16T15:12:40;22.90;99.90
33382;DHT22;21342;48.786;9.166;2022-10-16T15:15:30;22.90;99.90
33382;DHT22;21342;48.786;9.166;2022-10-16T15:17:58;22.80;99.90
33382;DHT22;21342;48.786;9.166;2022-10-16T15:20:27;22.80;99.90
33382;DHT22;21342;48.786;9.166;2022-10-16T15:22:56;22.80;99.90
33382;DHT22;21342;48.786;9.166;2022-10-16T15:25:30;22.80;99.90
33382;DHT22;21342;48.786;9.166;2022-10-16T15:27:58;22.80;99.90
33382;DHT22;21342;48.786;9.166;2022-10-16T15:30:27;22.80;99.90
33382;DHT22;21342;48.786;9.166;2022-10-16T15:32:55;22.60;99.90
33382;DHT22;21342;48.786;9.166;2022-10-16T15:35:22;22.60;99.90
33382;DHT22;21342;48.786;9.166;2022-10-16T15:37:49;22.40;99.90
33382;DHT22;21342;48.786;9.166;2022-10-16T15:40:17;22.30;99.90
33382;DHT22;21342;48.786;9.166;2022-10-16T15:42:45;22.30;99.90
33382;DHT22;21342;48.786;9.166;2022-10-16T15:45:13;22.20;99.90
33382;DHT22;21342;48.786;9.166;2022-10-16T15:47:42;22.20;99.90
33382;DHT22;21342;48.786;9.166;2022-10-16T15:50:10;22.10;99.90
33382;DHT22;21342;48.786;9.166;2022-10-16T15:52:38;22.00;99.90
33382;DHT22;21342;48.786;9.166;2022-10-16T15:55:07;22.00;99.90
33382;DHT22;21342;48.786;9.166;2022-10-16T15:57:34;21.80;99.90
33382;DHT22;21342;48.786;9.166;2022-10-16T16:00:05;21.70;99.90
33382;DHT22;21342;48.786;9.166;2022-10-16T16:02:33;21.60;99.90
33382;DHT22;21342;48.786;9.166;2022-10-16T16:05:02;21.50;99.90
33382;DHT22;21342;48.786;9.166;2022-10-16T16:07:32;21.50;99.90